sensor_id;sensor_type;location;lat;lon;timestamp;temperature;humidity
28175;SHT30;59417;44.788;10.334;2023-04-09T00:00:38;13.91;65.86
28175;SHT30;59417;44.788;10.334;2023-04-09T00:03:03;13.94;66.09
28175;SHT30;59417;44.788;10.334;2023-04-09T00:05:29;13.89;66.23
28175;SHT30;59417;44.788;10.334;2023-04-09T00:07:55;13.95;66.20
28175;SHT30;59417;44.788;10.334;2023-04-09T00:10:20;13.96;66.37
28175;SHT30;59417;44.788;10.334;2023-04-09T00:12:46;13.98;66.32
28175;SHT30;59417;44.788;10.334;2023-04-09T00:15:11;13.96;66.27
28175;SHT30;59417;44.788;10.334;2023-04-09T00:17:37;13.96;66.79
28175;SHT30;59417;44.788;10.334;2023-04-09T00:20:03;13.88;67.11
28175;SHT30;59417;44.788;10.334;2023-04-09T00:22:29;13.96;66.99
28175;SHT30;59417;44.788;10.334;2023-04-09T00:24:54;13.91;67.10
28175;SHT30;59417;44.788;10.334;2023-04-09T00:27:21;13.92;66.97
28175;SHT30;59417;44.788;10.334;2023-04-09T00:29:47;13.89;66.80
28175;SHT30;59417;44.788;10.334;2023-04-09T00:32:13;13.82;66.98
28175;SHT30;59417;44.788;10.334;2023-04-09T00:34:38;13.79;67.00
28175;SHT30;59417;44.788;10.334;2023-04-09T00:37:04;13.78;67.20
28175;SHT30;59417;44.788;10.334;2023-04-09T00:39:30;13.79;66.86
28175;SHT30;59417;44.788;10.334;2023-04-09T00:41:59;13.75;67.01
28175;SHT30;59417;44.788;10.334;2023-04-09T00:44:27;13.75;67.15
28175;SHT30;59417;44.788;10.334;2023-04-09T00:46:53;13.75;66.81
28175;SHT30;59417;44.788;10.334;2023-04-09T00:49:19;13.75;66.75
28175;SHT30;59417;44.788;10.334;2023-04-09T00:51:47;13.72;66.86
28175;SHT30;59417;44.788;10.334;2023-04-09T00:54:12;13.81;66.50
28175;SHT30;59417;44.788;10.334;2023-04-09T00:56:39;13.82;66.58
28175;SHT30;59417;44.788;10.334;2023-04-09T00:59:04;13.84;66.55
28175;SHT30;59417;44.788;10.334;2023-04-09T01:01:30;13.81;66.81
28175;SHT30;59417;44.788;10.334;2023-04-09T01:03:56;13.81;66.74
28175;SHT30;59417;44.788;10.334;2023-04-09T01:09:11;13.77;66.67
28175;SHT30;59417;44.788;10.334;2023-04-09T01:12:01;13.78;66.52
28175;SHT30;59417;44.788;10.334;2023-04-09T01:20:08;13.65;66.88
28175;SHT30;59417;44.788;10.334;2023-04-09T01:22:59;13.64;67.11
28175;SHT30;59417;44.788;10.334;2023-04-09T01:25:48;13.43;67.92
28175;SHT30;59417;44.788;10.334;2023-04-09T01:28:18;13.45;67.70
28175;SHT30;59417;44.788;10.334;2023-04-09T01:30:52;13.47;67.81
28175;SHT30;59417;44.788;10.334;2023-04-09T01:33:19;13.44;67.86
28175;SHT30;59417;44.788;10.334;2023-04-09T01:35:47;13.41;67.71
28175;SHT30;59417;44.788;10.334;2023-04-09T01:38:17;13.48;67.38
28175;SHT30;59417;44.788;10.334;2023-04-09T01:40:44;13.48;67.37
28175;SHT30;59417;44.788;10.334;2023-04-09T01:43:11;13.50;67.27
28175;SHT30;59417;44.788;10.334;2023-04-09T01:45:38;13.47;67.41
28175;SHT30;59417;44.788;10.334;2023-04-09T01:48:05;13.48;67.37
28175;SHT30;59417;44.788;10.334;2023-04-09T01:50:31;13.41;67.65
28175;SHT30;59417;44.788;10.334;2023-04-09T01:52:58;13.45;67.52
28175;SHT30;59417;44.788;10.334;2023-04-09T01:55:25;13.38;67.51
28175;SHT30;59417;44.788;10.334;2023-04-09T01:57:51;13.41;67.23
28175;SHT30;59417;44.788;10.334;2023-04-09T02:00:17;13.37;67.53
28175;SHT30;59417;44.788;10.334;2023-04-09T02:05:41;13.34;67.59
28175;SHT30;59417;44.788;10.334;2023-04-09T02:08:11;13.34;67.45
28175;SHT30;59417;44.788;10.334;2023-04-09T02:10:39;13.33;67.30
28175;SHT30;59417;44.788;10.334;2023-04-09T02:13:06;13.30;67.29
28175;SHT30;59417;44.788;10.334;2023-04-09T02:15:35;13.26;67.53
28175;SHT30;59417;44.788;10.334;2023-04-09T02:18:03;13.26;67.42
28175;SHT30;59417;44.788;10.334;2023-04-09T02:20:28;13.28;67.42
28175;SHT30;59417;44.788;10.334;2023-04-09T02:22:55;13.30;67.43
28175;SHT30;59417;44.788;10.334;2023-04-09T02:25:21;13.24;67.28
28175;SHT30;59417;44.788;10.334;2023-04-09T02:27:47;13.20;67.68
28175;SHT30;59417;44.788;10.334;2023-04-09T02:30:12;13.11;67.80
28175;SHT30;59417;44.788;10.334;2023-04-09T02:32:38;13.19;67.90
28175;SHT30;59417;44.788;10.334;2023-04-09T02:35:04;13.16;67.81
28175;SHT30;59417;44.788;10.334;2023-04-09T02:37:30;13.16;67.82
28175;SHT30;59417;44.788;10.334;2023-04-09T02:39:55;13.14;67.78
28175;SHT30;59417;44.788;10.334;2023-04-09T02:42:21;13.16;67.59
28175;SHT30;59417;44.788;10.334;2023-04-09T02:44:46;13.13;67.70
28175;SHT30;59417;44.788;10.334;2023-04-09T02:47:13;13.16;67.82
28175;SHT30;59417;44.788;10.334;2023-04-09T02:49:38;13.11;67.82
28175;SHT30;59417;44.788;10.334;2023-04-09T02:52:04;12.97;68.43
28175;SHT30;59417;44.788;10.334;2023-04-09T02:54:30;13.07;67.86
28175;SHT30;59417;44.788;10.334;2023-04-09T02:56:55;13.09;67.93
28175;SHT30;59417;44.788;10.334;2023-04-09T02:59:21;13.10;67.98
28175;SHT30;59417;44.788;10.334;2023-04-09T03:01:46;13.07;67.70
28175;SHT30;59417;44.788;10.334;2023-04-09T03:04:12;13.09;67.73
28175;SHT30;59417;44.788;10.334;2023-04-09T03:06:37;13.00;67.89
28175;SHT30;59417;44.788;10.334;2023-04-09T03:09:03;12.95;68.02
28175;SHT30;59417;44.788;10.334;2023-04-09T03:11:29;13.06;67.87
28175;SHT30;59417;44.788;10.334;2023-04-09T03:13:54;12.99;68.04
28175;SHT30;59417;44.788;10.334;2023-04-09T03:16:20;12.90;68.83
28175;SHT30;59417;44.788;10.334;2023-04-09T03:18:45;12.96;68.72
28175;SHT30;59417;44.788;10.334;2023-04-09T03:21:11;12.95;68.77
28175;SHT30;59417;44.788;10.334;2023-04-09T03:23:43;12.95;68.59
28175;SHT30;59417;44.788;10.334;2023-04-09T03:26:09;13.03;68.46
28175;SHT30;59417;44.788;10.334;2023-04-09T03:28:44;13.11;67.61
28175;SHT30;59417;44.788;10.334;2023-04-09T03:31:10;13.02;67.96
28175;SHT30;59417;44.788;10.334;2023-04-09T03:33:38;12.97;68.28
28175;SHT30;59417;44.788;10.334;2023-04-09T03:36:04;12.86;68.40
28175;SHT30;59417;44.788;10.334;2023-04-09T03:38:49;12.79;68.94
28175;SHT30;59417;44.788;10.334;2023-04-09T03:41:29;12.73;69.06
28175;SHT30;59417;44.788;10.334;2023-04-09T03:43:56;12.65;69.60
28175;SHT30;59417;44.788;10.334;2023-04-09T03:46:26;12.77;69.57
28175;SHT30;59417;44.788;10.334;2023-04-09T03:48:52;12.76;69.10
28175;SHT30;59417;44.788;10.334;2023-04-09T03:51:18;12.77;69.14
28175;SHT30;59417;44.788;10.334;2023-04-09T03:53:49;12.72;69.30
28175;SHT30;59417;44.788;10.334;2023-04-09T03:56:15;12.82;68.69
28175;SHT30;59417;44.788;10.334;2023-04-09T03:58:41;12.79;68.87
28175;SHT30;59417;44.788;10.334;2023-04-09T04:01:09;12.89;68.25
28175;SHT30;59417;44.788;10.334;2023-04-09T04:03:42;12.86;68.39
28175;SHT30;59417;44.788;10.334;2023-04-09T04:06:19;12.72;68.47
28175;SHT30;59417;44.788;10.334;2023-04-09T04:09:05;12.63;69.14
28175;SHT30;59417;44.788;10.334;2023-04-09T04:11:56;12.51;69.54
28175;SHT30;59417;44.788;10.334;2023-04-09T04:14:32;12.25;70.32
28175;SHT30;59417;44.788;10.334;2023-04-09T04:17:04;12.22;70.43
28175;SHT30;59417;44.788;10.334;2023-04-09T04:19:30;12.20;69.92
28175;SHT30;59417;44.788;10.334;2023-04-09T04:21:56;12.07;70.62
28175;SHT30;59417;44.788;10.334;2023-04-09T04:24:22;12.27;69.91
28175;SHT30;59417;44.788;10.334;2023-04-09T04:26:48;12.31;69.93
28175;SHT30;59417;44.788;10.334;2023-04-09T04:29:16;12.27;69.98
28175;SHT30;59417;44.788;10.334;2023-04-09T04:32:02;12.31;69.63
28175;SHT30;59417;44.788;10.334;2023-04-09T04:34:34;12.29;69.85
28175;SHT30;59417;44.788;10.334;2023-04-09T04:37:06;12.24;70.17
28175;SHT30;59417;44.788;10.334;2023-04-09T04:39:32;12.35;69.97
28175;SHT30;59417;44.788;10.334;2023-04-09T04:42:10;12.09;70.64
28175;SHT30;59417;44.788;10.334;2023-04-09T04:44:36;12.25;70.49
28175;SHT30;59417;44.788;10.334;2023-04-09T04:47:10;12.31;69.92
28175;SHT30;59417;44.788;10.334;2023-04-09T04:49:36;12.31;69.98
28175;SHT30;59417;44.788;10.334;2023-04-09T04:52:05;12.42;69.33
28175;SHT30;59417;44.788;10.334;2023-04-09T04:54:32;12.21;70.23
28175;SHT30;59417;44.788;10.334;2023-04-09T04:56:58;12.18;70.86
28175;SHT30;59417;44.788;10.334;2023-04-09T04:59:38;12.21;70.49
28175;SHT30;59417;44.788;10.334;2023-04-09T05:02:06;12.05;70.74
28175;SHT30;59417;44.788;10.334;2023-04-09T05:04:45;11.99;70.87
28175;SHT30;59417;44.788;10.334;2023-04-09T05:07:14;11.90;71.12
28175;SHT30;59417;44.788;10.334;2023-04-09T05:09:49;12.02;70.74
28175;SHT30;59417;44.788;10.334;2023-04-09T05:12:15;11.99;70.93
28175;SHT30;59417;44.788;10.334;2023-04-09T05:14:45;12.01;71.33
28175;SHT30;59417;44.788;10.334;2023-04-09T05:17:11;11.99;71.49
28175;SHT30;59417;44.788;10.334;2023-04-09T05:19:41;11.95;71.42
28175;SHT30;59417;44.788;10.334;2023-04-09T05:22:08;11.98;71.56
28175;SHT30;59417;44.788;10.334;2023-04-09T05:24:33;12.02;71.37
28175;SHT30;59417;44.788;10.334;2023-04-09T05:26:59;11.98;71.53
28175;SHT30;59417;44.788;10.334;2023-04-09T05:29:27;11.95;71.64
28175;SHT30;59417;44.788;10.334;2023-04-09T05:31:52;12.05;71.30
28175;SHT30;59417;44.788;10.334;2023-04-09T05:34:26;12.07;71.42
28175;SHT30;59417;44.788;10.334;2023-04-09T05:36:54;12.17;70.90
28175;SHT30;59417;44.788;10.334;2023-04-09T05:39:21;12.24;70.69
28175;SHT30;59417;44.788;10.334;2023-04-09T05:41:47;12.27;70.95
28175;SHT30;59417;44.788;10.334;2023-04-09T05:44:28;12.18;70.99
28175;SHT30;59417;44.788;10.334;2023-04-09T05:47:00;12.22;71.11
28175;SHT30;59417;44.788;10.334;2023-04-09T05:49:32;12.28;70.93
28175;SHT30;59417;44.788;10.334;2023-04-09T05:51:59;12.21;71.20
28175;SHT30;59417;44.788;10.334;2023-04-09T05:54:27;12.18;71.25
28175;SHT30;59417;44.788;10.334;2023-04-09T05:56:53;12.16;71.46
28175;SHT30;59417;44.788;10.334;2023-04-09T05:59:19;12.22;71.21
28175;SHT30;59417;44.788;10.334;2023-04-09T06:01:44;12.20;71.36
28175;SHT30;59417;44.788;10.334;2023-04-09T06:04:10;12.27;70.98
28175;SHT30;59417;44.788;10.334;2023-04-09T06:06:37;12.22;71.45
28175;SHT30;59417;44.788;10.334;2023-04-09T06:09:03;12.29;71.26
28175;SHT30;59417;44.788;10.334;2023-04-09T06:11:29;12.27;71.13
28175;SHT30;59417;44.788;10.334;2023-04-09T06:13:55;12.29;70.86
28175;SHT30;59417;44.788;10.334;2023-04-09T06:16:20;12.17;71.06
28175;SHT30;59417;44.788;10.334;2023-04-09T06:18:46;12.22;70.92
28175;SHT30;59417;44.788;10.334;2023-04-09T06:21:13;12.18;71.15
28175;SHT30;59417;44.788;10.334;2023-04-09T06:23:39;12.17;71.27
28175;SHT30;59417;44.788;10.334;2023-04-09T06:26:05;12.21;71.21
28175;SHT30;59417;44.788;10.334;2023-04-09T06:28:31;12.25;71.30
28175;SHT30;59417;44.788;10.334;2023-04-09T06:30:58;12.34;71.30
28175;SHT30;59417;44.788;10.334;2023-04-09T06:33:23;12.35;71.26
28175;SHT30;59417;44.788;10.334;2023-04-09T06:35:49;12.41;70.92
28175;SHT30;59417;44.788;10.334;2023-04-09T06:38:15;12.45;70.68
28175;SHT30;59417;44.788;10.334;2023-04-09T06:40:41;12.46;70.73
28175;SHT30;59417;44.788;10.334;2023-04-09T06:43:07;12.53;70.64
28175;SHT30;59417;44.788;10.334;2023-04-09T06:45:42;12.60;70.55
28175;SHT30;59417;44.788;10.334;2023-04-09T06:48:07;12.72;70.07
28175;SHT30;59417;44.788;10.334;2023-04-09T06:50:33;12.77;69.91
28175;SHT30;59417;44.788;10.334;2023-04-09T06:52:58;12.73;70.19
28175;SHT30;59417;44.788;10.334;2023-04-09T06:55:24;12.84;69.71
28175;SHT30;59417;44.788;10.334;2023-04-09T06:57:51;12.93;69.14
28175;SHT30;59417;44.788;10.334;2023-04-09T07:00:16;12.87;69.26
28175;SHT30;59417;44.788;10.334;2023-04-09T07:02:42;12.92;69.02
28175;SHT30;59417;44.788;10.334;2023-04-09T07:05:08;12.97;69.26
28175;SHT30;59417;44.788;10.334;2023-04-09T07:07:33;12.99;69.54
28175;SHT30;59417;44.788;10.334;2023-04-09T07:09:59;13.13;69.58
28175;SHT30;59417;44.788;10.334;2023-04-09T07:12:33;13.26;69.46
28175;SHT30;59417;44.788;10.334;2023-04-09T07:15:01;13.37;69.14
28175;SHT30;59417;44.788;10.334;2023-04-09T07:17:27;13.47;69.03
28175;SHT30;59417;44.788;10.334;2023-04-09T07:19:53;13.57;68.67
28175;SHT30;59417;44.788;10.334;2023-04-09T07:22:23;13.66;68.00
28175;SHT30;59417;44.788;10.334;2023-04-09T07:24:49;13.59;68.03
28175;SHT30;59417;44.788;10.334;2023-04-09T07:27:26;13.75;67.12
28175;SHT30;59417;44.788;10.334;2023-04-09T07:29:55;13.91;67.34
28175;SHT30;59417;44.788;10.334;2023-04-09T07:32:22;13.95;66.52
28175;SHT30;59417;44.788;10.334;2023-04-09T07:34:50;13.89;66.51
28175;SHT30;59417;44.788;10.334;2023-04-09T07:37:16;13.99;66.31
28175;SHT30;59417;44.788;10.334;2023-04-09T07:39:41;14.08;66.06
28175;SHT30;59417;44.788;10.334;2023-04-09T07:42:07;14.20;66.27
28175;SHT30;59417;44.788;10.334;2023-04-09T07:44:35;14.17;65.02
28175;SHT30;59417;44.788;10.334;2023-04-09T07:47:05;14.27;65.41
28175;SHT30;59417;44.788;10.334;2023-04-09T07:49:31;14.33;64.78
28175;SHT30;59417;44.788;10.334;2023-04-09T07:51:58;14.40;64.36
28175;SHT30;59417;44.788;10.334;2023-04-09T07:54:40;14.47;64.18
28175;SHT30;59417;44.788;10.334;2023-04-09T07:57:08;14.66;64.11
28175;SHT30;59417;44.788;10.334;2023-04-09T07:59:34;14.67;62.72
28175;SHT30;59417;44.788;10.334;2023-04-09T08:02:00;14.73;62.12
28175;SHT30;59417;44.788;10.334;2023-04-09T08:04:26;14.83;62.33
28175;SHT30;59417;44.788;10.334;2023-04-09T08:06:53;14.91;62.77
28175;SHT30;59417;44.788;10.334;2023-04-09T08:09:20;14.97;62.82
28175;SHT30;59417;44.788;10.334;2023-04-09T08:11:47;15.11;62.64
28175;SHT30;59417;44.788;10.334;2023-04-09T08:14:14;15.11;62.46
28175;SHT30;59417;44.788;10.334;2023-04-09T08:16:43;15.23;62.62
28175;SHT30;59417;44.788;10.334;2023-04-09T08:19:09;15.35;62.63
28175;SHT30;59417;44.788;10.334;2023-04-09T08:21:38;15.52;62.61
28175;SHT30;59417;44.788;10.334;2023-04-09T08:24:08;15.58;62.33
28175;SHT30;59417;44.788;10.334;2023-04-09T08:26:41;15.63;62.36
28175;SHT30;59417;44.788;10.334;2023-04-09T08:29:15;15.73;62.15
28175;SHT30;59417;44.788;10.334;2023-04-09T08:31:52;15.76;62.05
28175;SHT30;59417;44.788;10.334;2023-04-09T08:34:19;15.77;62.42
28175;SHT30;59417;44.788;10.334;2023-04-09T08:36:47;15.86;61.70
28175;SHT30;59417;44.788;10.334;2023-04-09T08:39:17;15.84;62.30
28175;SHT30;59417;44.788;10.334;2023-04-09T08:41:45;15.91;62.17
28175;SHT30;59417;44.788;10.334;2023-04-09T08:44:12;16.03;61.62
28175;SHT30;59417;44.788;10.334;2023-04-09T08:46:37;16.03;62.05
28175;SHT30;59417;44.788;10.334;2023-04-09T08:49:03;16.18;61.16
28175;SHT30;59417;44.788;10.334;2023-04-09T08:51:29;16.23;60.65
28175;SHT30;59417;44.788;10.334;2023-04-09T08:54:00;16.28;60.56
28175;SHT30;59417;44.788;10.334;2023-04-09T08:56:27;16.25;59.95
28175;SHT30;59417;44.788;10.334;2023-04-09T08:58:58;16.35;60.03
28175;SHT30;59417;44.788;10.334;2023-04-09T09:01:26;16.34;59.77
28175;SHT30;59417;44.788;10.334;2023-04-09T09:03:59;16.48;58.83
28175;SHT30;59417;44.788;10.334;2023-04-09T09:06:31;16.58;59.11
28175;SHT30;59417;44.788;10.334;2023-04-09T09:09:16;16.73;58.94
28175;SHT30;59417;44.788;10.334;2023-04-09T09:11:47;16.84;57.72
28175;SHT30;59417;44.788;10.334;2023-04-09T09:14:18;16.76;57.44
28175;SHT30;59417;44.788;10.334;2023-04-09T09:17:04;16.85;58.38
28175;SHT30;59417;44.788;10.334;2023-04-09T09:19:32;17.00;57.58
28175;SHT30;59417;44.788;10.334;2023-04-09T09:22:02;17.09;56.62
28175;SHT30;59417;44.788;10.334;2023-04-09T09:24:33;17.10;56.39
28175;SHT30;59417;44.788;10.334;2023-04-09T09:27:10;17.22;57.24
28175;SHT30;59417;44.788;10.334;2023-04-09T09:29:40;17.37;56.93
28175;SHT30;59417;44.788;10.334;2023-04-09T09:32:12;17.47;55.34
28175;SHT30;59417;44.788;10.334;2023-04-09T09:34:37;17.54;54.91
28175;SHT30;59417;44.788;10.334;2023-04-09T09:37:26;17.55;55.02
28175;SHT30;59417;44.788;10.334;2023-04-09T09:39:56;17.57;54.82
28175;SHT30;59417;44.788;10.334;2023-04-09T09:42:22;17.58;54.46
28175;SHT30;59417;44.788;10.334;2023-04-09T09:44:49;17.53;53.09
28175;SHT30;59417;44.788;10.334;2023-04-09T09:47:17;17.31;53.33
28175;SHT30;59417;44.788;10.334;2023-04-09T09:49:44;17.15;54.31
28175;SHT30;59417;44.788;10.334;2023-04-09T09:52:10;17.17;56.09
28175;SHT30;59417;44.788;10.334;2023-04-09T09:54:40;17.49;55.56
28175;SHT30;59417;44.788;10.334;2023-04-09T09:57:08;17.44;54.98
28175;SHT30;59417;44.788;10.334;2023-04-09T09:59:37;17.39;54.86
28175;SHT30;59417;44.788;10.334;2023-04-09T10:02:05;17.44;53.79
28175;SHT30;59417;44.788;10.334;2023-04-09T10:04:34;17.61;53.07
28175;SHT30;59417;44.788;10.334;2023-04-09T10:07:04;17.61;53.22
28175;SHT30;59417;44.788;10.334;2023-04-09T10:09:50;17.78;52.25
28175;SHT30;59417;44.788;10.334;2023-04-09T10:12:22;17.46;51.56
28175;SHT30;59417;44.788;10.334;2023-04-09T10:14:50;17.54;52.09
28175;SHT30;59417;44.788;10.334;2023-04-09T10:17:18;17.63;52.60
28175;SHT30;59417;44.788;10.334;2023-04-09T10:19:51;17.73;52.30
28175;SHT30;59417;44.788;10.334;2023-04-09T10:22:21;17.95;51.21
28175;SHT30;59417;44.788;10.334;2023-04-09T10:24:48;17.61;50.78
28175;SHT30;59417;44.788;10.334;2023-04-09T10:27:15;17.61;51.45
28175;SHT30;59417;44.788;10.334;2023-04-09T10:29:46;17.54;52.00
28175;SHT30;59417;44.788;10.334;2023-04-09T10:32:18;17.46;50.72
28175;SHT30;59417;44.788;10.334;2023-04-09T10:34:45;17.60;51.55
28175;SHT30;59417;44.788;10.334;2023-04-09T10:37:16;17.78;51.01
28175;SHT30;59417;44.788;10.334;2023-04-09T10:39:46;17.84;51.08
28175;SHT30;59417;44.788;10.334;2023-04-09T10:42:38;17.88;49.83
28175;SHT30;59417;44.788;10.334;2023-04-09T10:45:19;17.78;49.19
28175;SHT30;59417;44.788;10.334;2023-04-09T10:47:52;17.66;50.12
28175;SHT30;59417;44.788;10.334;2023-04-09T10:50:24;17.53;49.94
28175;SHT30;59417;44.788;10.334;2023-04-09T10:52:55;17.61;50.73
28175;SHT30;59417;44.788;10.334;2023-04-09T10:55:39;17.44;50.33
28175;SHT30;59417;44.788;10.334;2023-04-09T10:58:06;17.39;51.28
28175;SHT30;59417;44.788;10.334;2023-04-09T11:00:37;17.64;50.79
28175;SHT30;59417;44.788;10.334;2023-04-09T11:05:56;18.09;49.16
28175;SHT30;59417;44.788;10.334;2023-04-09T11:08:22;18.36;49.23
28175;SHT30;59417;44.788;10.334;2023-04-09T11:10:50;18.60;48.64
28175;SHT30;59417;44.788;10.334;2023-04-09T11:13:23;18.60;47.77
28175;SHT30;59417;44.788;10.334;2023-04-09T11:15:50;18.81;48.61
28175;SHT30;59417;44.788;10.334;2023-04-09T11:18:23;18.90;47.17
28175;SHT30;59417;44.788;10.334;2023-04-09T11:20:56;19.01;45.53
28175;SHT30;59417;44.788;10.334;2023-04-09T11:23:23;19.14;44.93
28175;SHT30;59417;44.788;10.334;2023-04-09T11:25:49;19.18;44.89
28175;SHT30;59417;44.788;10.334;2023-04-09T11:28:15;19.34;45.59
28175;SHT30;59417;44.788;10.334;2023-04-09T11:30:41;19.45;45.34
28175;SHT30;59417;44.788;10.334;2023-04-09T11:33:08;19.37;43.62
28175;SHT30;59417;44.788;10.334;2023-04-09T11:35:34;19.51;44.81
28175;SHT30;59417;44.788;10.334;2023-04-09T11:38:10;19.65;44.92
28175;SHT30;59417;44.788;10.334;2023-04-09T11:40:36;19.57;44.69
28175;SHT30;59417;44.788;10.334;2023-04-09T11:43:07;19.78;45.20
28175;SHT30;59417;44.788;10.334;2023-04-09T11:45:34;19.92;44.08
28175;SHT30;59417;44.788;10.334;2023-04-09T11:48:01;19.90;42.77
28175;SHT30;59417;44.788;10.334;2023-04-09T11:50:27;19.95;43.21
28175;SHT30;59417;44.788;10.334;2023-04-09T11:52:52;20.00;43.45
28175;SHT30;59417;44.788;10.334;2023-04-09T11:55:28;19.98;44.17
28175;SHT30;59417;44.788;10.334;2023-04-09T11:57:59;19.68;44.93
28175;SHT30;59417;44.788;10.334;2023-04-09T12:00:26;19.38;44.89
28175;SHT30;59417;44.788;10.334;2023-04-09T12:03:02;19.52;44.42
28175;SHT30;59417;44.788;10.334;2023-04-09T12:05:33;19.65;43.88
28175;SHT30;59417;44.788;10.334;2023-04-09T12:08:01;19.83;43.64
28175;SHT30;59417;44.788;10.334;2023-04-09T12:10:30;20.00;42.66
28175;SHT30;59417;44.788;10.334;2023-04-09T12:13:06;20.06;43.45
28175;SHT30;59417;44.788;10.334;2023-04-09T12:15:34;20.10;42.62
28175;SHT30;59417;44.788;10.334;2023-04-09T12:18:01;20.20;42.10
28175;SHT30;59417;44.788;10.334;2023-04-09T12:20:34;20.08;40.45
28175;SHT30;59417;44.788;10.334;2023-04-09T12:23:01;20.33;41.15
28175;SHT30;59417;44.788;10.334;2023-04-09T12:25:33;20.40;41.75
28175;SHT30;59417;44.788;10.334;2023-04-09T12:28:00;20.50;42.38
28175;SHT30;59417;44.788;10.334;2023-04-09T12:30:26;20.61;41.91
28175;SHT30;59417;44.788;10.334;2023-04-09T12:32:52;20.68;41.98
28175;SHT30;59417;44.788;10.334;2023-04-09T12:35:18;20.81;41.37
28175;SHT30;59417;44.788;10.334;2023-04-09T12:37:44;20.21;41.74
28175;SHT30;59417;44.788;10.334;2023-04-09T12:40:10;20.39;41.93
28175;SHT30;59417;44.788;10.334;2023-04-09T12:42:41;20.57;42.73
28175;SHT30;59417;44.788;10.334;2023-04-09T12:45:12;20.75;42.93
28175;SHT30;59417;44.788;10.334;2023-04-09T12:47:38;20.82;41.73
28175;SHT30;59417;44.788;10.334;2023-04-09T12:50:06;20.50;41.26
28175;SHT30;59417;44.788;10.334;2023-04-09T12:52:32;19.96;41.31
28175;SHT30;59417;44.788;10.334;2023-04-09T12:54:59;19.65;42.31
28175;SHT30;59417;44.788;10.334;2023-04-09T12:57:26;19.62;43.82
28175;SHT30;59417;44.788;10.334;2023-04-09T12:59:52;19.69;43.32
28175;SHT30;59417;44.788;10.334;2023-04-09T13:02:18;19.90;42.52
28175;SHT30;59417;44.788;10.334;2023-04-09T13:04:44;19.98;42.62
28175;SHT30;59417;44.788;10.334;2023-04-09T13:07:09;20.23;44.01
28175;SHT30;59417;44.788;10.334;2023-04-09T13:09:36;20.45;43.16
28175;SHT30;59417;44.788;10.334;2023-04-09T13:12:02;20.60;42.03
28175;SHT30;59417;44.788;10.334;2023-04-09T13:14:27;20.64;42.07
28175;SHT30;59417;44.788;10.334;2023-04-09T13:16:53;20.71;41.85
28175;SHT30;59417;44.788;10.334;2023-04-09T13:19:19;20.70;40.77
28175;SHT30;59417;44.788;10.334;2023-04-09T13:21:44;20.36;40.66
28175;SHT30;59417;44.788;10.334;2023-04-09T13:24:10;20.05;41.22
28175;SHT30;59417;44.788;10.334;2023-04-09T13:26:36;19.70;40.90
28175;SHT30;59417;44.788;10.334;2023-04-09T13:29:02;19.55;42.95
28175;SHT30;59417;44.788;10.334;2023-04-09T13:31:28;19.73;43.26
28175;SHT30;59417;44.788;10.334;2023-04-09T13:33:54;19.78;42.93
28175;SHT30;59417;44.788;10.334;2023-04-09T13:36:20;19.63;42.91
28175;SHT30;59417;44.788;10.334;2023-04-09T13:38:45;19.75;42.97
28175;SHT30;59417;44.788;10.334;2023-04-09T13:41:11;19.93;42.36
28175;SHT30;59417;44.788;10.334;2023-04-09T13:43:37;20.12;41.86
28175;SHT30;59417;44.788;10.334;2023-04-09T13:46:03;20.24;41.57
28175;SHT30;59417;44.788;10.334;2023-04-09T13:48:29;20.29;40.80
28175;SHT30;59417;44.788;10.334;2023-04-09T13:50:55;19.90;40.00
28175;SHT30;59417;44.788;10.334;2023-04-09T13:53:21;19.85;39.61
28175;SHT30;59417;44.788;10.334;2023-04-09T13:55:49;19.95;40.42
28175;SHT30;59417;44.788;10.334;2023-04-09T13:58:15;20.10;39.23
28175;SHT30;59417;44.788;10.334;2023-04-09T14:00:40;19.98;38.72
28175;SHT30;59417;44.788;10.334;2023-04-09T14:03:06;19.76;38.75
28175;SHT30;59417;44.788;10.334;2023-04-09T14:05:32;19.80;38.53
28175;SHT30;59417;44.788;10.334;2023-04-09T14:07:57;19.90;40.18
28175;SHT30;59417;44.788;10.334;2023-04-09T14:10:23;19.73;38.08
28175;SHT30;59417;44.788;10.334;2023-04-09T14:12:49;19.86;38.85
28175;SHT30;59417;44.788;10.334;2023-04-09T14:15:15;19.87;38.44
28175;SHT30;59417;44.788;10.334;2023-04-09T14:17:42;19.82;38.46
28175;SHT30;59417;44.788;10.334;2023-04-09T14:20:08;19.66;39.47
28175;SHT30;59417;44.788;10.334;2023-04-09T14:22:33;19.63;39.87
28175;SHT30;59417;44.788;10.334;2023-04-09T14:24:59;19.61;40.46
28175;SHT30;59417;44.788;10.334;2023-04-09T14:27:25;19.72;40.47
28175;SHT30;59417;44.788;10.334;2023-04-09T14:29:51;19.89;40.75
28175;SHT30;59417;44.788;10.334;2023-04-09T14:32:17;20.05;40.76
28175;SHT30;59417;44.788;10.334;2023-04-09T14:34:43;20.20;39.11
28175;SHT30;59417;44.788;10.334;2023-04-09T14:37:09;20.29;39.97
28175;SHT30;59417;44.788;10.334;2023-04-09T14:39:34;20.44;38.96
28175;SHT30;59417;44.788;10.334;2023-04-09T14:42:00;20.50;38.45
28175;SHT30;59417;44.788;10.334;2023-04-09T14:44:26;20.51;37.36
28175;SHT30;59417;44.788;10.334;2023-04-09T14:46:52;20.54;37.43
28175;SHT30;59417;44.788;10.334;2023-04-09T14:49:21;20.47;37.67
28175;SHT30;59417;44.788;10.334;2023-04-09T14:51:46;20.47;38.11
28175;SHT30;59417;44.788;10.334;2023-04-09T14:54:12;20.41;39.50
28175;SHT30;59417;44.788;10.334;2023-04-09T14:56:37;20.43;38.65
28175;SHT30;59417;44.788;10.334;2023-04-09T14:59:03;20.45;39.26
28175;SHT30;59417;44.788;10.334;2023-04-09T15:01:28;20.44;38.93
28175;SHT30;59417;44.788;10.334;2023-04-09T15:03:54;20.51;38.78
28175;SHT30;59417;44.788;10.334;2023-04-09T15:06:20;20.45;38.12
28175;SHT30;59417;44.788;10.334;2023-04-09T15:08:45;20.41;37.91
28175;SHT30;59417;44.788;10.334;2023-04-09T15:11:15;20.31;37.94
28175;SHT30;59417;44.788;10.334;2023-04-09T15:13:40;20.31;38.00
28175;SHT30;59417;44.788;10.334;2023-04-09T15:16:06;20.24;38.52
28175;SHT30;59417;44.788;10.334;2023-04-09T15:18:32;20.17;38.85
28175;SHT30;59417;44.788;10.334;2023-04-09T15:20:58;20.17;38.65
28175;SHT30;59417;44.788;10.334;2023-04-09T15:23:24;20.14;38.87
28175;SHT30;59417;44.788;10.334;2023-04-09T15:25:50;19.96;39.13
28175;SHT30;59417;44.788;10.334;2023-04-09T15:28:15;19.95;38.84
28175;SHT30;59417;44.788;10.334;2023-04-09T15:30:41;19.95;39.54
28175;SHT30;59417;44.788;10.334;2023-04-09T15:33:06;19.99;40.32
28175;SHT30;59417;44.788;10.334;2023-04-09T15:35:33;20.06;39.46